EFIV Airport Information

Runway Information
Runway 04 Length 8199 ft width 148 ft
Elevation 480 ft Threshold ft Heading 47
Runway 22 Length 8199 ft Width 148 ft
Elevation 463 ft Threshold ft Heading 227
Runway 08 Length 2625 ft width 148 ft
Elevation 475 ft Threshold ft Heading 92
Runway 26 Length 2625 ft Width 148 ft
Elevation 468 ft Threshold ft Heading 272
Airport Frequencies
Type ATIS Name ATIS Frequency 123.2 MHZ
Type TWR Name TWR Frequency 118 MHZ
Airport Navaids
Type NDB Name Akujarvi Frequency 432 KHZ
Airport Weather Information & NOTAM
ADDS - METARS form results

(1037 UTC 07 February 2023)
Data provider http://aviationweather.gov/metar/data/
 
METAR text: EFIV 071020Z AUTO 21018KT 9999 BKN013 02/M00 Q1004
Conditions at: EFIV (IVALO , FI) observed 1020 UTC 07 February 2023
Temperature: 2.0°C (36°F)
Dewpoint: 0.0°C (32°F) [RH = 87%]
Pressure (altimeter): 29.65 inches Hg (1004.0 mb)
Winds: from the SSW (210 degrees) at 21 MPH (18 knots; 9.3 m/s)
Visibility: 6 or more miles (10+ km)
Ceiling: 1300 feet AGL
Clouds: broken clouds at 1300 feet AGL
Weather: no significant weather observed at this time

METAR text: EFIV 070950Z AUTO 21020KT 9999 FEW014 02/M00 Q1004
Conditions at: EFIV (IVALO , FI) observed 0950 UTC 07 February 2023
Temperature: 2.0°C (36°F)
Dewpoint: 0.0°C (32°F) [RH = 87%]
Pressure (altimeter): 29.65 inches Hg (1004.0 mb)
Winds: from the SSW (210 degrees) at 23 MPH (20 knots; 10.3 m/s)
Visibility: 6 or more miles (10+ km)
Ceiling: at least 12,000 feet AGL
Clouds: few clouds at 1400 feet AGL
Weather: no significant weather observed at this time

Forecast for: EFIV (IVALO , FI)
Text: TAF EFIV 070823Z 0709/0718 23015KT CAVOK
Forecast period: 0900 to 1800 UTC 07 February 2023
Forecast type: FROM: standard forecast or significant change
Winds: from the SW (230 degrees) at 17 MPH (15 knots; 7.7 m/s)
Visibility: 6 or more miles (10+ km)
Ceiling: unknown
Clouds: missing
Weather: NSW  (no significant weather)
Text: TEMPO 0709/0715 23017G30KT
Forecast period: 0900 to 1500 UTC 07 February 2023
Forecast type: TEMPORARY: The following changes expected for less than half the time period
Winds: from the SW (230 degrees) at 20 MPH (17 knots; 8.7 m/s)
gusting to 34 MPH (30 knots; 15.4 m/s)
Visibility: missing
Ceiling: unknown
Clouds: missing
Weather: no significant weather forecast for this period
Text: PROB40 0709/0714 BKN008
Forecast period: 0900 to 1400 UTC 07 February 2023
Forecast type: PROBABLE: 40 percent likelihood of the following during this time
Visibility: missing
Ceiling: 800 feet AGL
Clouds: broken clouds at 800 feet AGL
Weather: no significant weather forecast for this period